sensor_id;sensor_type;location;lat;lon;timestamp;pressure;altitude;pressure_sealevel;temperature;humidity
47985;BME280;33753;52.912;-7.342;2023-02-12T00:01:53;102288.66;;;6.90;100.00
47985;BME280;33753;52.912;-7.342;2023-02-12T00:04:22;102290.81;;;6.85;100.00
47985;BME280;33753;52.912;-7.342;2023-02-12T00:06:50;102291.19;;;6.79;100.00
47985;BME280;33753;52.912;-7.342;2023-02-12T00:09:19;102295.09;;;6.74;100.00
47985;BME280;33753;52.912;-7.342;2023-02-12T00:11:49;102293.25;;;6.75;100.00
47985;BME280;33753;52.912;-7.342;2023-02-12T00:14:18;102291.41;;;6.75;100.00
47985;BME280;33753;52.912;-7.342;2023-02-12T00:16:46;102290.25;;;6.80;100.00
47985;BME280;33753;52.912;-7.342;2023-02-12T00:19:20;102289.28;;;6.81;100.00
47985;BME280;33753;52.912;-7.342;2023-02-12T00:21:51;102294.00;;;6.77;100.00
47985;BME280;33753;52.912;-7.342;2023-02-12T00:24:19;102295.72;;;6.78;100.00
47985;BME280;33753;52.912;-7.342;2023-02-12T00:26:48;102293.88;;;6.79;100.00
47985;BME280;33753;52.912;-7.342;2023-02-12T00:29:16;102300.25;;;6.78;100.00
47985;BME280;33753;52.912;-7.342;2023-02-12T00:31:44;102306.78;;;6.73;100.00
47985;BME280;33753;52.912;-7.342;2023-02-12T00:34:16;102310.34;;;6.74;100.00
47985;BME280;33753;52.912;-7.342;2023-02-12T00:36:48;102303.16;;;6.74;100.00
47985;BME280;33753;52.912;-7.342;2023-02-12T00:39:18;102311.22;;;6.74;100.00
47985;BME280;33753;52.912;-7.342;2023-02-12T00:41:50;102301.31;;;6.75;100.00
47985;BME280;33753;52.912;-7.342;2023-02-12T00:44:19;102314.88;;;6.73;100.00
47985;BME280;33753;52.912;-7.342;2023-02-12T00:46:49;102306.00;;;6.71;100.00
47985;BME280;33753;52.912;-7.342;2023-02-12T00:49:20;102308.59;;;6.73;100.00
47985;BME280;33753;52.912;-7.342;2023-02-12T00:51:50;102307.97;;;6.69;100.00
47985;BME280;33753;52.912;-7.342;2023-02-12T00:54:18;102299.69;;;6.72;100.00
47985;BME280;33753;52.912;-7.342;2023-02-12T00:56:48;102300.47;;;6.74;100.00
47985;BME280;33753;52.912;-7.342;2023-02-12T00:59:16;102303.16;;;6.74;100.00
47985;BME280;33753;52.912;-7.342;2023-02-12T01:01:45;102308.69;;;6.71;100.00
47985;BME280;33753;52.912;-7.342;2023-02-12T01:04:15;102310.22;;;6.75;100.00
47985;BME280;33753;52.912;-7.342;2023-02-12T01:06:44;102299.56;;;6.74;100.00
47985;BME280;33753;52.912;-7.342;2023-02-12T01:09:13;102304.09;;;6.73;100.00
47985;BME280;33753;52.912;-7.342;2023-02-12T01:11:43;102303.91;;;6.77;100.00
47985;BME280;33753;52.912;-7.342;2023-02-12T01:14:13;102305.53;;;6.79;100.00
47985;BME280;33753;52.912;-7.342;2023-02-12T01:16:41;102298.72;;;6.73;100.00
47985;BME280;33753;52.912;-7.342;2023-02-12T01:19:10;102293.13;;;6.77;100.00
47985;BME280;33753;52.912;-7.342;2023-02-12T01:21:41;102301.94;;;6.79;100.00
47985;BME280;33753;52.912;-7.342;2023-02-12T01:24:09;102291.19;;;6.79;100.00
47985;BME280;33753;52.912;-7.342;2023-02-12T01:26:39;102288.19;;;6.70;100.00
47985;BME280;33753;52.912;-7.342;2023-02-12T01:29:07;102284.97;;;6.78;100.00
47985;BME280;33753;52.912;-7.342;2023-02-12T01:31:36;102285.81;;;6.79;100.00
47985;BME280;33753;52.912;-7.342;2023-02-12T01:34:05;102280.44;;;6.79;100.00
47985;BME280;33753;52.912;-7.342;2023-02-12T01:36:33;102270.78;;;6.76;100.00
47985;BME280;33753;52.912;-7.342;2023-02-12T01:39:02;102275.00;;;6.80;100.00
47985;BME280;33753;52.912;-7.342;2023-02-12T01:41:31;102275.72;;;6.82;100.00
47985;BME280;33753;52.912;-7.342;2023-02-12T01:44:17;102271.22;;;6.83;100.00
47985;BME280;33753;52.912;-7.342;2023-02-12T01:46:47;102268.41;;;6.84;100.00
47985;BME280;33753;52.912;-7.342;2023-02-12T01:49:17;102270.16;;;6.85;100.00
47985;BME280;33753;52.912;-7.342;2023-02-12T01:51:49;102264.88;;;6.84;100.00
47985;BME280;33753;52.912;-7.342;2023-02-12T01:54:18;102261.31;;;6.83;100.00
47985;BME280;33753;52.912;-7.342;2023-02-12T01:56:48;102268.41;;;6.84;100.00
47985;BME280;33753;52.912;-7.342;2023-02-12T01:59:18;102264.97;;;6.82;100.00
47985;BME280;33753;52.912;-7.342;2023-02-12T02:01:47;102264.97;;;6.82;100.00
47985;BME280;33753;52.912;-7.342;2023-02-12T02:04:16;102267.56;;;6.84;100.00
47985;BME280;33753;52.912;-7.342;2023-02-12T02:06:47;102252.28;;;6.84;100.00
47985;BME280;33753;52.912;-7.342;2023-02-12T02:09:17;102249.47;;;6.86;100.00
47985;BME280;33753;52.912;-7.342;2023-02-12T02:11:46;102257.66;;;6.84;100.00
47985;BME280;33753;52.912;-7.342;2023-02-12T02:14:47;102258.75;;;6.82;100.00
47985;BME280;33753;52.912;-7.342;2023-02-12T02:17:29;102265.81;;;6.83;100.00
47985;BME280;33753;52.912;-7.342;2023-02-12T02:22:46;102264.13;;;6.82;100.00
47985;BME280;33753;52.912;-7.342;2023-02-12T02:25:27;102254.97;;;6.84;100.00
47985;BME280;33753;52.912;-7.342;2023-02-12T02:28:02;102256.81;;;6.84;100.00
47985;BME280;33753;52.912;-7.342;2023-02-12T02:30:36;102255.06;;;6.83;100.00
47985;BME280;33753;52.912;-7.342;2023-02-12T02:33:10;102257.00;;;6.81;100.00
47985;BME280;33753;52.912;-7.342;2023-02-12T02:35:40;102257.00;;;6.81;100.00
47985;BME280;33753;52.912;-7.342;2023-02-12T02:38:17;102264.13;;;6.82;100.00
47985;BME280;33753;52.912;-7.342;2023-02-12T02:40:49;102260.44;;;6.83;100.00
47985;BME280;33753;52.912;-7.342;2023-02-12T02:43:19;102263.44;;;6.78;100.00
47985;BME280;33753;52.912;-7.342;2023-02-12T02:45:50;102262.38;;;6.81;100.00
47985;BME280;33753;52.912;-7.342;2023-02-12T02:48:20;102251.63;;;6.81;100.00
47985;BME280;33753;52.912;-7.342;2023-02-12T02:50:51;102251.94;;;6.76;100.00
47985;BME280;33753;52.912;-7.342;2023-02-12T02:53:24;102249.78;;;6.81;100.00
47985;BME280;33753;52.912;-7.342;2023-02-12T02:55:54;102257.97;;;6.80;100.00
47985;BME280;33753;52.912;-7.342;2023-02-12T02:58:24;102249.91;;;6.80;100.00
47985;BME280;33753;52.912;-7.342;2023-02-12T03:00:56;102258.75;;;6.82;100.00
47985;BME280;33753;52.912;-7.342;2023-02-12T03:03:28;102264.97;;;6.82;100.00
47985;BME280;33753;52.912;-7.342;2023-02-12T03:06:00;102255.06;;;6.83;100.00
47985;BME280;33753;52.912;-7.342;2023-02-12T03:08:33;102249.47;;;6.86;100.00
47985;BME280;33753;52.912;-7.342;2023-02-12T03:11:04;102255.53;;;6.89;100.00
47985;BME280;33753;52.912;-7.342;2023-02-12T03:13:35;102259.16;;;6.88;100.00
47985;BME280;33753;52.912;-7.342;2023-02-12T03:16:06;102251.41;;;6.84;100.00
47985;BME280;33753;52.912;-7.342;2023-02-12T03:18:40;102249.69;;;6.83;100.00
47985;BME280;33753;52.912;-7.342;2023-02-12T03:21:10;102259.59;;;6.82;100.00
47985;BME280;33753;52.912;-7.342;2023-02-12T03:23:41;102260.25;;;6.86;100.00
47985;BME280;33753;52.912;-7.342;2023-02-12T03:26:11;102254.97;;;6.84;100.00
47985;BME280;33753;52.912;-7.342;2023-02-12T03:28:41;102249.59;;;6.84;100.00
47985;BME280;33753;52.912;-7.342;2023-02-12T03:31:11;102248.63;;;6.85;100.00
47985;BME280;33753;52.912;-7.342;2023-02-12T03:33:44;102244.41;;;6.81;100.00
47985;BME280;33753;52.912;-7.342;2023-02-12T03:36:18;102239.91;;;6.82;100.00
47985;BME280;33753;52.912;-7.342;2023-02-12T03:38:50;102246.03;;;6.84;100.00
47985;BME280;33753;52.912;-7.342;2023-02-12T03:41:21;102239.91;;;6.82;100.00
47985;BME280;33753;52.912;-7.342;2023-02-12T03:43:52;102229.06;;;6.83;100.00
47985;BME280;33753;52.912;-7.342;2023-02-12T03:46:24;102232.59;;;6.84;100.00
47985;BME280;33753;52.912;-7.342;2023-02-12T03:48:56;102231.19;;;6.78;100.00
47985;BME280;33753;52.912;-7.342;2023-02-12T03:51:27;102233.75;;;6.80;100.00
47985;BME280;33753;52.912;-7.342;2023-02-12T03:53:57;102228.59;;;6.77;100.00
47985;BME280;33753;52.912;-7.342;2023-02-12T03:56:26;102224.94;;;6.78;100.00
47985;BME280;33753;52.912;-7.342;2023-02-12T03:58:55;102232.03;;;6.79;100.00
47985;BME280;33753;52.912;-7.342;2023-02-12T04:01:25;102219.84;;;6.73;100.00
47985;BME280;33753;52.912;-7.342;2023-02-12T04:03:55;102216.09;;;6.75;100.00
47985;BME280;33753;52.912;-7.342;2023-02-12T04:06:25;102220.75;;;6.73;100.00
47985;BME280;33753;52.912;-7.342;2023-02-12T04:08:54;102221.47;;;6.75;100.00
47985;BME280;33753;52.912;-7.342;2023-02-12T04:11:25;102216.97;;;6.76;100.00
47985;BME280;33753;52.912;-7.342;2023-02-12T04:13:59;102217.84;;;6.77;100.00
47985;BME280;33753;52.912;-7.342;2023-02-12T04:16:33;102211.41;;;6.79;100.00
47985;BME280;33753;52.912;-7.342;2023-02-12T04:19:04;102212.13;;;6.81;100.00
47985;BME280;33753;52.912;-7.342;2023-02-12T04:21:36;102217.41;;;6.83;100.00
47985;BME280;33753;52.912;-7.342;2023-02-12T04:24:12;102213.97;;;6.81;100.00
47985;BME280;33753;52.912;-7.342;2023-02-12T04:26:46;102213.03;;;6.82;100.00
47985;BME280;33753;52.912;-7.342;2023-02-12T04:29:16;102212.25;;;6.80;100.00
47985;BME280;33753;52.912;-7.342;2023-02-12T04:31:51;102206.88;;;6.80;100.00
47985;BME280;33753;52.912;-7.342;2023-02-12T04:34:24;102209.75;;;6.77;100.00
47985;BME280;33753;52.912;-7.342;2023-02-12T04:36:55;102210.50;;;6.79;100.00
47985;BME280;33753;52.912;-7.342;2023-02-12T04:39:25;102206.88;;;6.80;100.00
47985;BME280;33753;52.912;-7.342;2023-02-12T04:41:56;102199.97;;;6.75;100.00
47985;BME280;33753;52.912;-7.342;2023-02-12T04:44:25;102198.06;;;6.78;100.00
47985;BME280;33753;52.912;-7.342;2023-02-12T04:46:55;102196.09;;;6.80;100.00
47985;BME280;33753;52.912;-7.342;2023-02-12T04:49:23;102198.06;;;6.78;100.00
47985;BME280;33753;52.912;-7.342;2023-02-12T04:51:51;102199.97;;;6.75;100.00
47985;BME280;33753;52.912;-7.342;2023-02-12T04:54:20;102196.22;;;6.78;100.00
47985;BME280;33753;52.912;-7.342;2023-02-12T04:56:49;102196.09;;;6.80;100.00
47985;BME280;33753;52.912;-7.342;2023-02-12T04:59:17;102193.31;;;6.81;100.00
47985;BME280;33753;52.912;-7.342;2023-02-12T05:01:45;102196.00;;;6.81;100.00
47985;BME280;33753;52.912;-7.342;2023-02-12T05:04:15;102198.91;;;6.78;100.00
47985;BME280;33753;52.912;-7.342;2023-02-12T05:06:44;102199.75;;;6.79;100.00
47985;BME280;33753;52.912;-7.342;2023-02-12T05:09:13;102206.88;;;6.80;100.00
47985;BME280;33753;52.912;-7.342;2023-02-12T05:11:41;102203.00;;;6.84;100.00
47985;BME280;33753;52.912;-7.342;2023-02-12T05:14:10;102204.06;;;6.81;100.00
47985;BME280;33753;52.912;-7.342;2023-02-12T05:16:38;102197.84;;;6.81;100.00
47985;BME280;33753;52.912;-7.342;2023-02-12T05:19:06;102202.06;;;6.85;100.00
47985;BME280;33753;52.912;-7.342;2023-02-12T05:21:37;102199.34;;;6.85;100.00
47985;BME280;33753;52.912;-7.342;2023-02-12T05:24:05;102198.59;;;6.83;100.00
47985;BME280;33753;52.912;-7.342;2023-02-12T05:26:34;102203.22;;;6.81;100.00
47985;BME280;33753;52.912;-7.342;2023-02-12T05:29:02;102193.84;;;6.73;100.00
47985;BME280;33753;52.912;-7.342;2023-02-12T05:31:30;102192.56;;;6.79;100.00
47985;BME280;33753;52.912;-7.342;2023-02-12T05:33:59;102194.84;;;6.85;100.00
47985;BME280;33753;52.912;-7.342;2023-02-12T05:36:27;102192.34;;;6.82;100.00
47985;BME280;33753;52.912;-7.342;2023-02-12T05:38:57;102186.13;;;6.82;100.00
47985;BME280;33753;52.912;-7.342;2023-02-12T05:41:26;102189.44;;;6.85;100.00
47985;BME280;33753;52.912;-7.342;2023-02-12T05:43:54;102183.00;;;6.88;100.00
47985;BME280;33753;52.912;-7.342;2023-02-12T05:46:22;102183.75;;;6.90;100.00
47985;BME280;33753;52.912;-7.342;2023-02-12T05:48:51;102175.69;;;6.90;100.00
47985;BME280;33753;52.912;-7.342;2023-02-12T05:51:20;102173.75;;;6.92;100.00
47985;BME280;33753;52.912;-7.342;2023-02-12T05:53:49;102176.44;;;6.92;100.00
47985;BME280;33753;52.912;-7.342;2023-02-12T05:56:20;102177.97;;;6.96;100.00
47985;BME280;33753;52.912;-7.342;2023-02-12T05:58:51;102174.50;;;6.94;100.00
47985;BME280;33753;52.912;-7.342;2023-02-12T06:01:20;102169.22;;;6.92;100.00
47985;BME280;33753;52.912;-7.342;2023-02-12T06:03:49;102168.38;;;6.92;100.00
47985;BME280;33753;52.912;-7.342;2023-02-12T06:06:17;102162.78;;;6.95;100.00
47985;BME280;33753;52.912;-7.342;2023-02-12T06:08:46;102169.91;;;6.96;100.00
47985;BME280;33753;52.912;-7.342;2023-02-12T06:11:14;102162.56;;;6.98;100.00
47985;BME280;33753;52.912;-7.342;2023-02-12T06:13:44;102160.84;;;6.97;100.00
47985;BME280;33753;52.912;-7.342;2023-02-12T06:16:16;102160.84;;;6.97;100.00
47985;BME280;33753;52.912;-7.342;2023-02-12T06:18:45;102156.34;;;6.98;100.00
47985;BME280;33753;52.912;-7.342;2023-02-12T06:21:13;102146.44;;;6.98;100.00
47985;BME280;33753;52.912;-7.342;2023-02-12T06:23:42;102150.06;;;6.97;100.00
47985;BME280;33753;52.912;-7.342;2023-02-12T06:26:10;102152.59;;;7.00;100.00
47985;BME280;33753;52.912;-7.342;2023-02-12T06:28:38;102150.06;;;6.97;100.00
47985;BME280;33753;52.912;-7.342;2023-02-12T06:31:16;102153.53;;;6.99;100.00
47985;BME280;33753;52.912;-7.342;2023-02-12T06:33:44;102154.16;;;7.03;100.00
47985;BME280;33753;52.912;-7.342;2023-02-12T06:36:13;102146.00;;;7.04;100.00
47985;BME280;33753;52.912;-7.342;2023-02-12T06:38:41;102141.72;;;7.02;100.00
47985;BME280;33753;52.912;-7.342;2023-02-12T06:41:09;102147.94;;;7.02;100.00
47985;BME280;33753;52.912;-7.342;2023-02-12T06:43:38;102143.63;;;7.00;100.00
47985;BME280;33753;52.912;-7.342;2023-02-12T06:46:06;102138.03;;;7.03;100.00
47985;BME280;33753;52.912;-7.342;2023-02-12T06:48:36;102148.50;;;7.07;100.00
47985;BME280;33753;52.912;-7.342;2023-02-12T06:51:05;102145.47;;;7.12;100.00
47985;BME280;33753;52.912;-7.342;2023-02-12T06:53:33;102147.50;;;7.08;100.00
47985;BME280;33753;52.912;-7.342;2023-02-12T06:56:02;102142.34;;;7.05;100.00
47985;BME280;33753;52.912;-7.342;2023-02-12T06:58:30;102132.75;;;7.01;100.00
47985;BME280;33753;52.912;-7.342;2023-02-12T07:01:06;102127.94;;;7.06;100.00
47985;BME280;33753;52.912;-7.342;2023-02-12T07:03:38;102132.00;;;6.99;100.00
47985;BME280;33753;52.912;-7.342;2023-02-12T07:06:06;102130.50;;;6.95;100.00
47985;BME280;33753;52.912;-7.342;2023-02-12T07:08:34;102126.75;;;6.98;100.00
47985;BME280;33753;52.912;-7.342;2023-02-12T07:11:03;102114.38;;;6.95;100.00
47985;BME280;33753;52.912;-7.342;2023-02-12T07:13:32;102124.69;;;7.01;100.00
47985;BME280;33753;52.912;-7.342;2023-02-12T07:16:04;102115.88;;;6.99;100.00
47985;BME280;33753;52.912;-7.342;2023-02-12T07:18:33;102119.75;;;6.95;100.00
47985;BME280;33753;52.912;-7.342;2023-02-12T07:21:04;102119.75;;;6.95;100.00
47985;BME280;33753;52.912;-7.342;2023-02-12T07:23:32;102121.25;;;6.99;100.00
47985;BME280;33753;52.912;-7.342;2023-02-12T07:26:01;102115.22;;;6.96;100.00
47985;BME280;33753;52.912;-7.342;2023-02-12T07:28:31;102130.50;;;6.95;100.00
47985;BME280;33753;52.912;-7.342;2023-02-12T07:31:02;102125.88;;;6.97;100.00
47985;BME280;33753;52.912;-7.342;2023-02-12T07:33:33;102125.75;;;6.99;100.00
47985;BME280;33753;52.912;-7.342;2023-02-12T07:36:01;102124.69;;;7.01;100.00
47985;BME280;33753;52.912;-7.342;2023-02-12T07:38:31;102124.91;;;6.98;100.00
47985;BME280;33753;52.912;-7.342;2023-02-12T07:41:06;102129.22;;;7.01;100.00
47985;BME280;33753;52.912;-7.342;2023-02-12T07:43:36;102123.16;;;6.97;100.00
47985;BME280;33753;52.912;-7.342;2023-02-12T07:46:09;102122.00;;;7.01;100.00
47985;BME280;33753;52.912;-7.342;2023-02-12T07:48:38;102125.47;;;7.03;100.00
47985;BME280;33753;52.912;-7.342;2023-02-12T07:51:07;102127.94;;;7.06;100.00
47985;BME280;33753;52.912;-7.342;2023-02-12T07:53:37;102131.78;;;7.02;100.00
47985;BME280;33753;52.912;-7.342;2023-02-12T07:56:06;102132.47;;;7.06;100.00
47985;BME280;33753;52.912;-7.342;2023-02-12T07:58:34;102135.22;;;7.04;100.00
47985;BME280;33753;52.912;-7.342;2023-02-12T08:01:16;102143.84;;;7.09;100.00
47985;BME280;33753;52.912;-7.342;2023-02-12T08:03:45;102141.16;;;7.09;100.00
47985;BME280;33753;52.912;-7.342;2023-02-12T08:06:14;102150.84;;;7.12;100.00
47985;BME280;33753;52.912;-7.342;2023-02-12T08:08:44;102144.63;;;7.12;100.00
47985;BME280;33753;52.912;-7.342;2023-02-12T08:11:13;102146.66;;;7.08;100.00
47985;BME280;33753;52.912;-7.342;2023-02-12T08:13:41;102145.38;;;7.14;100.00
47985;BME280;33753;52.912;-7.342;2023-02-12T08:16:11;102149.00;;;7.13;100.00
47985;BME280;33753;52.912;-7.342;2023-02-12T08:18:39;102147.09;;;7.15;100.00
47985;BME280;33753;52.912;-7.342;2023-02-12T08:21:08;102143.63;;;7.13;100.00
47985;BME280;33753;52.912;-7.342;2023-02-12T08:23:37;102140.72;;;7.16;100.00
47985;BME280;33753;52.912;-7.342;2023-02-12T08:26:08;102140.19;;;7.11;100.00
47985;BME280;33753;52.912;-7.342;2023-02-12T08:28:37;102135.66;;;7.24;100.00
47985;BME280;33753;52.912;-7.342;2023-02-12T08:31:06;102150.09;;;7.23;100.00
47985;BME280;33753;52.912;-7.342;2023-02-12T08:33:35;102141.06;;;7.24;100.00
47985;BME280;33753;52.912;-7.342;2023-02-12T08:36:04;102142.78;;;7.25;100.00
47985;BME280;33753;52.912;-7.342;2023-02-12T08:38:32;102147.09;;;7.28;100.00
47985;BME280;33753;52.912;-7.342;2023-02-12T08:41:01;102144.50;;;7.26;100.00
47985;BME280;33753;52.912;-7.342;2023-02-12T08:43:31;102143.41;;;7.29;100.00
47985;BME280;33753;52.912;-7.342;2023-02-12T08:46:00;102136.09;;;7.31;100.00
47985;BME280;33753;52.912;-7.342;2023-02-12T08:48:28;102140.81;;;7.27;100.00
47985;BME280;33753;52.912;-7.342;2023-02-12T08:51:01;102152.16;;;7.32;100.00
47985;BME280;33753;52.912;-7.342;2023-02-12T08:53:30;102151.81;;;7.37;100.00
47985;BME280;33753;52.912;-7.342;2023-02-12T08:55:58;102156.97;;;7.40;100.00
47985;BME280;33753;52.912;-7.342;2023-02-12T08:58:27;102155.91;;;7.42;100.00
47985;BME280;33753;52.912;-7.342;2023-02-12T09:00:56;102152.03;;;7.47;100.00
47985;BME280;33753;52.912;-7.342;2023-02-12T09:03:25;102149.88;;;7.52;100.00
47985;BME280;33753;52.912;-7.342;2023-02-12T09:05:53;102156.09;;;7.52;100.00
47985;BME280;33753;52.912;-7.342;2023-02-12T09:08:21;102153.31;;;7.54;100.00
47985;BME280;33753;52.912;-7.342;2023-02-12T09:10:50;102153.06;;;7.57;100.00
47985;BME280;33753;52.912;-7.342;2023-02-12T09:13:18;102155.34;;;7.63;100.00
47985;BME280;33753;52.912;-7.342;2023-02-12T09:15:46;102158.13;;;7.61;100.00
47985;BME280;33753;52.912;-7.342;2023-02-12T09:18:18;102150.03;;;7.61;100.00
47985;BME280;33753;52.912;-7.342;2023-02-12T09:20:46;102155.88;;;7.68;100.00
47985;BME280;33753;52.912;-7.342;2023-02-12T09:23:14;102150.81;;;7.64;100.00
47985;BME280;33753;52.912;-7.342;2023-02-12T09:25:42;102151.44;;;7.67;100.00
47985;BME280;33753;52.912;-7.342;2023-02-12T09:28:11;102152.81;;;7.73;100.00
47985;BME280;33753;52.912;-7.342;2023-02-12T09:30:40;102148.31;;;7.73;100.00
47985;BME280;33753;52.912;-7.342;2023-02-12T09:33:08;102143.06;;;7.72;100.00
47985;BME280;33753;52.912;-7.342;2023-02-12T09:35:39;102137.09;;;7.79;100.00
47985;BME280;33753;52.912;-7.342;2023-02-12T09:38:08;102132.13;;;7.86;100.00
47985;BME280;33753;52.912;-7.342;2023-02-12T09:40:38;102130.81;;;7.92;100.00
47985;BME280;33753;52.912;-7.342;2023-02-12T09:43:11;102132.75;;;7.90;100.00
47985;BME280;33753;52.912;-7.342;2023-02-12T09:45:42;102120.88;;;7.92;100.00
47985;BME280;33753;52.912;-7.342;2023-02-12T09:48:16;102121.72;;;7.93;100.00
47985;BME280;33753;52.912;-7.342;2023-02-12T09:50:51;102112.69;;;7.94;100.00
47985;BME280;33753;52.912;-7.342;2023-02-12T09:53:21;102104.94;;;7.89;100.00
47985;BME280;33753;52.912;-7.342;2023-02-12T09:55:50;102093.94;;;7.92;100.00
47985;BME280;33753;52.912;-7.342;2023-02-12T09:58:19;102094.59;;;7.96;100.00
47985;BME280;33753;52.912;-7.342;2023-02-12T10:00:51;102092.84;;;7.95;100.00
47985;BME280;33753;52.912;-7.342;2023-02-12T10:03:19;102096.06;;;8.00;100.00
47985;BME280;33753;52.912;-7.342;2023-02-12T10:05:51;102098.25;;;7.95;100.00
47985;BME280;33753;52.912;-7.342;2023-02-12T10:08:30;102094.25;;;8.01;100.00
47985;BME280;33753;52.912;-7.342;2023-02-12T10:11:08;102094.97;;;8.03;100.00
47985;BME280;33753;52.912;-7.342;2023-02-12T10:13:42;102087.00;;;8.01;100.00
47985;BME280;33753;52.912;-7.342;2023-02-12T10:16:16;102086.88;;;8.03;100.00
47985;BME280;33753;52.912;-7.342;2023-02-12T10:18:57;102087.25;;;7.98;100.00
47985;BME280;33753;52.912;-7.342;2023-02-12T10:21:32;102081.22;;;7.94;100.00
47985;BME280;33753;52.912;-7.342;2023-02-12T10:24:14;102083.50;;;8.12;100.00
47985;BME280;33753;52.912;-7.342;2023-02-12T10:26:46;102075.66;;;8.09;100.00
47985;BME280;33753;52.912;-7.342;2023-02-12T10:29:16;102079.50;;;8.18;100.00
47985;BME280;33753;52.912;-7.342;2023-02-12T10:31:45;102075.47;;;8.23;100.00
47985;BME280;33753;52.912;-7.342;2023-02-12T10:34:17;102067.72;;;8.19;100.00
47985;BME280;33753;52.912;-7.342;2023-02-12T10:36:47;102069.97;;;8.25;100.00
47985;BME280;33753;52.912;-7.342;2023-02-12T10:39:20;102057.22;;;8.27;100.00
47985;BME280;33753;52.912;-7.342;2023-02-12T10:41:51;102052.59;;;8.29;100.00
47985;BME280;33753;52.912;-7.342;2023-02-12T10:44:22;102062.72;;;8.25;100.00
47985;BME280;33753;52.912;-7.342;2023-02-12T10:46:50;102056.84;;;8.31;100.00
47985;BME280;33753;52.912;-7.342;2023-02-12T10:49:19;102060.06;;;8.37;100.00
47985;BME280;33753;52.912;-7.342;2023-02-12T10:51:55;102054.19;;;8.43;100.00
47985;BME280;33753;52.912;-7.342;2023-02-12T10:54:36;102049.94;;;8.40;100.00
47985;BME280;33753;52.912;-7.342;2023-02-12T10:57:07;102056.34;;;8.51;100.00
47985;BME280;33753;52.912;-7.342;2023-02-12T10:59:37;102060.25;;;8.46;100.00
47985;BME280;33753;52.912;-7.342;2023-02-12T11:02:15;102051.75;;;8.40;100.00
47985;BME280;33753;52.912;-7.342;2023-02-12T11:04:45;102050.06;;;8.39;100.00
47985;BME280;33753;52.912;-7.342;2023-02-12T11:07:15;102050.44;;;8.45;100.00
47985;BME280;33753;52.912;-7.342;2023-02-12T11:09:44;102044.75;;;8.37;100.00
47985;BME280;33753;52.912;-7.342;2023-02-12T11:12:16;102050.91;;;8.39;100.00
47985;BME280;33753;52.912;-7.342;2023-02-12T11:14:47;102035.25;;;8.44;100.00
47985;BME280;33753;52.912;-7.342;2023-02-12T11:17:23;102045.81;;;8.47;100.00
47985;BME280;33753;52.912;-7.342;2023-02-12T11:22:40;102047.31;;;8.52;100.00
47985;BME280;33753;52.912;-7.342;2023-02-12T11:25:16;102048.03;;;8.54;100.00
47985;BME280;33753;52.912;-7.342;2023-02-12T11:27:44;102042.63;;;8.54;100.00
47985;BME280;33753;52.912;-7.342;2023-02-12T11:30:25;102038.56;;;8.48;100.00
47985;BME280;33753;52.912;-7.342;2023-02-12T11:32:54;102045.69;;;8.49;100.00
47985;BME280;33753;52.912;-7.342;2023-02-12T11:35:31;102045.69;;;8.49;100.00
47985;BME280;33753;52.912;-7.342;2023-02-12T11:38:03;102042.75;;;8.52;100.00
47985;BME280;33753;52.912;-7.342;2023-02-12T11:40:31;102037.97;;;8.56;100.00
47985;BME280;33753;52.912;-7.342;2023-02-12T11:43:01;102038.69;;;8.46;100.00
47985;BME280;33753;52.912;-7.342;2023-02-12T11:45:33;102023.25;;;8.48;100.00
47985;BME280;33753;52.912;-7.342;2023-02-12T11:48:01;102022.66;;;8.56;100.00
47985;BME280;33753;52.912;-7.342;2023-02-12T11:50:30;102022.66;;;8.56;100.00
47985;BME280;33753;52.912;-7.342;2023-02-12T11:53:00;102023.91;;;8.63;100.00
47985;BME280;33753;52.912;-7.342;2023-02-12T11:55:34;102023.25;;;8.60;100.00
47985;BME280;33753;52.912;-7.342;2023-02-12T11:58:03;102018.25;;;8.67;100.00
47985;BME280;33753;52.912;-7.342;2023-02-12T12:00:34;102014.59;;;8.79;100.00
47985;BME280;33753;52.912;-7.342;2023-02-12T12:03:10;102022.19;;;8.85;100.00
47985;BME280;33753;52.912;-7.342;2023-02-12T12:05:41;102008.59;;;8.87;100.00
47985;BME280;33753;52.912;-7.342;2023-02-12T12:08:13;101998.16;;;8.82;100.00
47985;BME280;33753;52.912;-7.342;2023-02-12T12:10:46;101993.88;;;8.79;100.00
47985;BME280;33753;52.912;-7.342;2023-02-12T12:13:16;101990.91;;;8.82;100.00
47985;BME280;33753;52.912;-7.342;2023-02-12T12:15:52;101984.78;;;8.80;100.00
47985;BME280;33753;52.912;-7.342;2023-02-12T12:18:45;101979.16;;;8.84;100.00
47985;BME280;33753;52.912;-7.342;2023-02-12T12:21:34;101969.59;;;8.79;100.00
47985;BME280;33753;52.912;-7.342;2023-02-12T12:24:06;101967.13;;;8.88;100.00
47985;BME280;33753;52.912;-7.342;2023-02-12T12:26:38;101971.19;;;8.93;100.00
47985;BME280;33753;52.912;-7.342;2023-02-12T12:29:10;101976.72;;;8.92;100.00
47985;BME280;33753;52.912;-7.342;2023-02-12T12:31:43;101971.78;;;8.97;100.00
47985;BME280;33753;52.912;-7.342;2023-02-12T12:34:13;101959.75;;;8.90;100.00
47985;BME280;33753;52.912;-7.342;2023-02-12T12:39:31;101959.03;;;8.99;100.00
47985;BME280;33753;52.912;-7.342;2023-02-12T12:44:50;101955.34;;;8.89;100.00
47985;BME280;33753;52.912;-7.342;2023-02-12T12:47:23;101957.06;;;8.90;100.00
47985;BME280;33753;52.912;-7.342;2023-02-12T12:49:57;101948.50;;;8.96;100.00
47985;BME280;33753;52.912;-7.342;2023-02-12T12:52:34;101952.63;;;9.00;100.00
47985;BME280;33753;52.912;-7.342;2023-02-12T12:57:52;101928.44;;;9.10;100.00
47985;BME280;33753;52.912;-7.342;2023-02-12T13:03:34;101930.44;;;8.96;100.00
47985;BME280;33753;52.912;-7.342;2023-02-12T13:09:05;101938.31;;;8.88;100.00
47985;BME280;33753;52.912;-7.342;2023-02-12T13:11:39;101933.75;;;8.89;100.00
47985;BME280;33753;52.912;-7.342;2023-02-12T13:14:20;101930.84;;;8.80;100.00
47985;BME280;33753;52.912;-7.342;2023-02-12T13:16:50;101935.34;;;8.91;100.00
47985;BME280;33753;52.912;-7.342;2023-02-12T13:19:26;101935.97;;;8.95;100.00